createdAt,value
2022-09-05T00:02:35.321Z,100969.47
2022-09-05T00:07:59.391Z,100967.00
2022-09-05T00:13:07.402Z,100960.88
2022-09-05T00:24:17.619Z,100963.59
2022-09-05T00:24:28.313Z,100958.41
2022-09-05T00:31:05.803Z,100957.81
2022-09-05T00:35:26.202Z,100955.38
2022-09-05T00:40:33.561Z,100956.50
2022-09-05T00:45:37.941Z,100958.06
2022-09-05T00:50:51.673Z,100959.91
2022-09-05T00:56:00.833Z,100965.44
2022-09-05T01:01:19.745Z,100964.59
2022-09-05T01:06:30.351Z,100970.25
2022-09-05T01:11:40.501Z,100967.91
2022-09-05T01:17:01.720Z,100975.88
2022-09-05T01:22:22.887Z,100965.47
2022-09-05T01:28:43.550Z,100969.63
2022-09-05T01:33:08.731Z,100974.28
2022-09-05T01:38:14.154Z,100971.00
2022-09-05T01:43:23.570Z,100968.31
2022-09-05T01:48:32.153Z,100971.09
2022-09-05T01:53:39.389Z,100968.31
2022-09-05T01:58:55.030Z,100967.44
2022-09-05T02:04:08.919Z,100968.41
2022-09-05T02:09:18.789Z,100973.06
2022-09-05T02:14:34.094Z,100979.47
2022-09-05T02:19:43.106Z,100973.22
2022-09-05T02:24:46.492Z,100973.34
2022-09-05T02:29:57.713Z,100966.09
2022-09-05T02:35:02.521Z,100959.84
2022-09-05T02:45:00.420Z,100965.38
2022-09-05T02:45:39.108Z,100971.63
2022-09-05T02:53:57.800Z,100963.53
2022-09-05T02:57:40.246Z,100964.03
2022-09-05T03:01:59.159Z,100960.22
2022-09-05T03:07:18.919Z,100968.56
2022-09-05T03:12:55.741Z,100965.00
2022-09-05T03:18:34.946Z,100964.16
2022-09-05T03:24:14.036Z,100959.16
2022-09-05T03:29:46.913Z,100964.53
2022-09-05T03:35:08.275Z,100970.28
2022-09-05T03:40:42.063Z,100972.88
2022-09-05T03:46:00.299Z,100971.03
2022-09-05T03:57:01.782Z,100973.00
2022-09-05T03:57:27.820Z,100970.44
2022-09-05T04:07:53.185Z,100978.78
2022-09-05T04:08:24.412Z,100980.59
2022-09-05T04:13:17.584Z,100980.72
2022-09-05T04:18:33.106Z,100976.69
2022-09-05T04:23:45.810Z,100973.75
2022-09-05T04:28:54.587Z,100977.28
2022-09-05T04:34:03.725Z,100978.16
2022-09-05T04:39:08.308Z,100982.31
2022-09-05T04:44:12.917Z,100988.81
2022-09-05T04:49:17.735Z,100991.75
2022-09-05T04:54:30.112Z,100993.59
2022-09-05T05:03:42.451Z,101006.41
2022-09-05T05:06:17.107Z,101001.41
2022-09-05T05:14:09.271Z,101007.53
2022-09-05T05:18:08.289Z,101012.19
2022-09-05T05:21:21.535Z,101008.63
2022-09-05T05:26:25.810Z,101014.28
2022-09-05T05:31:30.290Z,101013.41
2022-09-05T05:36:36.328Z,101023.84
2022-09-05T05:41:41.602Z,101023.97
2022-09-05T05:46:46.831Z,101027.63
2022-09-05T05:52:01.187Z,101028.72
2022-09-05T05:57:33.081Z,101037.66
2022-09-05T06:03:25.571Z,101042.19
2022-09-05T06:14:50.078Z,101046.25
2022-09-05T06:15:13.349Z,101056.44
2022-09-05T06:22:06.423Z,101059.50
2022-09-05T06:26:19.449Z,101062.28
2022-09-05T06:31:48.146Z,101062.84
2022-09-05T06:36:53.202Z,101067.66
2022-09-05T06:42:10.084Z,101064.84
2022-09-05T06:47:34.045Z,101064.47
2022-09-05T06:53:13.924Z,101073.28
2022-09-05T06:58:50.489Z,101068.09
2022-09-05T07:04:33.242Z,101072.06
2022-09-05T07:09:36.269Z,101069.72
2022-09-05T07:14:42.260Z,101073.22
2022-09-05T07:19:49.888Z,101075.81
2022-09-05T07:24:54.637Z,101070.53
2022-09-05T07:30:01.200Z,101070.09
2022-09-05T07:35:07.404Z,101072.44
2022-09-05T07:40:26.410Z,101080.38
2022-09-05T07:45:30.453Z,101089.59
2022-09-05T07:56:41.217Z,101087.66
2022-09-05T07:57:06.381Z,101089.25
2022-09-05T08:01:22.528Z,101076.19
2022-09-05T08:07:42.372Z,101068.81
2022-09-05T08:11:49.595Z,101067.03
2022-09-05T08:16:55.540Z,101076.09
2022-09-05T08:21:59.925Z,101080.16
2022-09-05T08:27:04.065Z,101076.63
2022-09-05T08:32:08.952Z,101066.66
2022-09-05T08:37:15.132Z,101060.66
2022-09-05T08:42:27.964Z,101050.31
2022-09-05T08:47:35.454Z,101049.44
2022-09-05T08:52:57.502Z,101045.53
2022-09-05T08:58:04.778Z,101038.44
2022-09-05T09:03:13.937Z,101046.00
2022-09-05T09:08:22.249Z,101043.81
2022-09-05T09:13:36.728Z,101032.66
2022-09-05T09:19:02.909Z,101029.72
2022-09-05T09:24:15.060Z,101029.88
2022-09-05T09:29:18.343Z,101026.59
2022-09-05T09:35:21.323Z,101027.97
2022-09-05T09:40:24.312Z,101024.56
2022-09-05T09:45:33.327Z,101018.91
2022-09-05T09:50:53.530Z,101012.59
2022-09-05T09:56:55.671Z,101013.34
2022-09-05T10:02:34.208Z,100999.84
2022-09-05T10:10:53.338Z,101006.22
2022-09-05T10:13:35.614Z,100998.38
2022-09-05T10:18:45.820Z,100993.97
2022-09-05T10:24:12.955Z,100996.66
2022-09-05T10:29:38.921Z,100990.88
2022-09-05T10:35:17.458Z,100984.88
2022-09-05T10:40:11.037Z,100989.38
2022-09-05T10:45:15.800Z,100984.22
2022-09-05T10:50:27.389Z,100981.66
2022-09-05T10:55:33.479Z,100958.81
2022-09-05T11:02:23.991Z,100964.19
2022-09-05T11:06:29.488Z,100965.91
2022-09-05T11:11:34.600Z,100952.41
2022-09-05T11:16:39.207Z,100944.22
2022-09-05T11:21:48.655Z,100939.16
2022-09-05T11:27:24.810Z,100938.94
2022-09-05T11:39:53.197Z,100936.75
2022-09-05T11:40:02.338Z,100937.75
2022-09-05T11:44:25.995Z,100930.13
2022-09-05T11:49:42.329Z,100917.94
2022-09-05T11:54:57.731Z,100920.91
2022-09-05T12:00:33.575Z,100912.22
2022-09-05T12:06:06.197Z,100908.13
2022-09-05T12:11:21.455Z,100913.66
2022-09-05T12:16:40.840Z,100899.34
2022-09-05T12:22:16.179Z,100897.84
2022-09-05T12:27:39.634Z,100901.06
2022-09-05T12:35:42.064Z,100894.66
2022-09-05T12:41:32.666Z,100888.75
2022-09-05T12:44:41.591Z,100882.91
2022-09-05T12:49:52.460Z,100895.50
2022-09-05T12:54:59.311Z,100886.84
2022-09-05T13:03:04.485Z,100883.03
2022-09-05T13:05:46.329Z,100886.44
2022-09-05T13:14:48.383Z,100877.78
2022-09-05T13:16:23.179Z,100872.69
2022-09-05T13:21:28.101Z,100869.63
2022-09-05T13:26:36.178Z,100872.44
2022-09-05T13:38:00.715Z,100866.81
2022-09-05T13:38:12.079Z,100867.47
2022-09-05T13:42:58.890Z,100862.34
2022-09-05T13:49:24.078Z,100860.19
2022-09-05T13:54:06.686Z,100853.34
2022-09-05T13:59:10.120Z,100855.16
2022-09-05T14:10:09.169Z,100838.28
2022-09-05T14:15:19.138Z,100830.66
2022-09-05T14:20:49.791Z,100824.97
2022-09-05T14:25:56.230Z,100818.56
2022-09-05T14:37:44.832Z,100814.59
2022-09-05T14:37:45.869Z,100811.19
2022-09-05T14:42:12.349Z,100812.03
2022-09-05T14:47:34.933Z,100802.34
2022-09-05T14:52:43.806Z,100805.63
2022-09-05T15:02:39.034Z,100805.53
2022-09-05T15:03:12.428Z,100793.13
2022-09-05T15:09:04.367Z,100795.25
2022-09-05T15:14:01.409Z,100796.09
2022-09-05T15:19:04.135Z,100802.22
2022-09-05T15:24:22.786Z,100794.13
2022-09-05T15:29:27.972Z,100796.28
2022-09-05T15:34:33.423Z,100795.13
2022-09-05T15:39:36.148Z,100797.13
2022-09-05T15:45:06.351Z,100797.13
2022-09-05T15:50:04.714Z,100787.19
2022-09-05T15:55:11.886Z,100798.84
2022-09-05T16:00:39.682Z,100793.56
2022-09-05T16:10:28.829Z,100798.28
2022-09-05T16:12:06.412Z,100792.72
2022-09-05T16:23:20.839Z,100802.56
2022-09-05T16:23:35.085Z,100795.72
2022-09-05T16:27:51.882Z,100790.75
2022-09-05T16:33:00.413Z,100794.03
2022-09-05T16:38:09.536Z,100796.88
2022-09-05T16:43:16.797Z,100797.16
2022-09-05T16:48:40.169Z,100791.03
2022-09-05T16:53:46.200Z,100790.31
2022-09-05T16:59:02.905Z,100796.44
2022-09-05T17:04:09.739Z,100795.44
2022-09-05T17:09:23.222Z,100792.59
2022-09-05T17:14:26.169Z,100790.91
2022-09-05T17:19:33.790Z,100775.69
2022-09-05T17:29:32.961Z,100772.84
2022-09-05T17:35:43.191Z,100783.25
2022-09-05T17:41:22.214Z,100785.81
2022-09-05T17:46:26.350Z,100791.50
2022-09-05T17:52:08.017Z,100795.50
2022-09-05T17:57:42.027Z,100803.34
2022-09-05T18:02:54.002Z,100800.50
2022-09-05T18:07:59.013Z,100802.66
2022-09-05T18:13:32.353Z,100786.13
2022-09-05T18:19:28.584Z,100805.91
2022-09-05T18:24:02.210Z,100800.50
2022-09-05T18:29:06.400Z,100797.94
2022-09-05T18:34:43.208Z,100812.44
2022-09-05T18:39:47.557Z,100807.72
2022-09-05T18:44:55.326Z,100813.00
2022-09-05T18:50:26.328Z,100814.72
2022-09-05T18:56:11.461Z,100819.00
2022-09-05T19:00:51.047Z,100817.84
2022-09-05T19:05:55.845Z,100818.84
2022-09-05T19:11:28.519Z,100815.59
2022-09-05T19:16:43.629Z,100818.41
2022-09-05T19:22:10.419Z,100821.28
2022-09-05T19:28:13.958Z,100819.31
2022-09-05T19:36:46.285Z,100816.72
2022-09-05T19:38:04.721Z,100810.19
2022-09-05T19:47:44.516Z,100809.91
2022-09-05T19:48:34.617Z,100804.22
2022-09-05T19:53:46.241Z,100803.34
2022-09-05T19:58:50.432Z,100803.50
2022-09-05T20:03:53.748Z,100809.75
2022-09-05T20:08:56.730Z,100808.91
2022-09-05T20:14:19.007Z,100820.19
2022-09-05T20:19:28.813Z,100816.72
2022-09-05T20:24:31.827Z,100826.56
2022-09-05T20:29:54.022Z,100821.88
2022-09-05T20:38:26.378Z,100827.44
2022-09-05T20:43:36.545Z,100826.44
2022-09-05T20:45:45.569Z,100818.91
2022-09-05T20:54:15.607Z,100829.03
2022-09-05T20:56:23.482Z,100814.50
2022-09-05T21:01:29.546Z,100813.19
2022-09-05T21:06:33.667Z,100813.03
2022-09-05T21:11:36.985Z,100816.72
2022-09-05T21:16:45.572Z,100812.91
2022-09-05T21:22:02.111Z,100799.50
2022-09-05T21:27:16.256Z,100793.38
2022-09-05T21:32:20.607Z,100792.53
2022-09-05T21:37:23.337Z,100785.88
2022-09-05T21:44:29.494Z,100783.16
2022-09-05T21:47:53.128Z,100785.41
2022-09-05T21:54:08.871Z,100789.41
2022-09-05T21:59:27.321Z,100787.28
2022-09-05T22:03:43.748Z,100766.63
2022-09-05T22:09:06.613Z,100776.91
2022-09-05T22:14:09.309Z,100771.47
2022-09-05T22:19:17.678Z,100762.94
2022-09-05T22:24:20.350Z,100756.66
2022-09-05T22:29:24.892Z,100760.22
2022-09-05T22:34:28.960Z,100762.59
2022-09-05T22:39:37.848Z,100767.16
2022-09-05T22:44:41.014Z,100763.88
2022-09-05T22:49:45.010Z,100762.16
2022-09-05T22:54:47.714Z,100759.00
2022-09-05T22:59:51.268Z,100759.31
2022-09-05T23:04:55.299Z,100748.63
2022-09-05T23:09:58.161Z,100747.47
2022-09-05T23:15:00.778Z,100746.31
2022-09-05T23:20:05.658Z,100743.72
2022-09-05T23:25:08.874Z,100742.72
2022-09-05T23:30:12.162Z,100747.94
2022-09-05T23:35:16.398Z,100747.09
2022-09-05T23:40:21.946Z,100738.41
2022-09-05T23:45:24.859Z,100724.88
2022-09-05T23:50:29.069Z,100716.63
2022-09-05T23:55:32.721Z,100721.84
